sensor_id;sensor_type;location;lat;lon;timestamp;P1;durP1;ratioP1;P2;durP2;ratioP2
70814;SDS011;58428;49.478;10.986;2024-03-08T00:02:36;26.42;;;11.38;;
70814;SDS011;58428;49.478;10.986;2024-03-08T00:05:02;27.17;;;12.60;;
70814;SDS011;58428;49.478;10.986;2024-03-08T00:07:29;27.77;;;11.15;;
70814;SDS011;58428;49.478;10.986;2024-03-08T00:09:54;24.45;;;11.25;;
70814;SDS011;58428;49.478;10.986;2024-03-08T00:12:20;26.73;;;10.68;;
70814;SDS011;58428;49.478;10.986;2024-03-08T00:14:45;26.33;;;11.30;;
70814;SDS011;58428;49.478;10.986;2024-03-08T00:17:11;26.23;;;12.80;;
70814;SDS011;58428;49.478;10.986;2024-03-08T00:19:36;26.60;;;11.90;;
70814;SDS011;58428;49.478;10.986;2024-03-08T00:22:02;29.55;;;12.85;;
70814;SDS011;58428;49.478;10.986;2024-03-08T00:24:27;27.48;;;11.80;;
70814;SDS011;58428;49.478;10.986;2024-03-08T00:26:55;26.38;;;11.57;;
70814;SDS011;58428;49.478;10.986;2024-03-08T00:29:20;27.52;;;11.98;;
70814;SDS011;58428;49.478;10.986;2024-03-08T00:31:50;29.33;;;13.20;;
70814;SDS011;58428;49.478;10.986;2024-03-08T00:34:18;24.73;;;12.40;;
70814;SDS011;58428;49.478;10.986;2024-03-08T00:39:09;28.10;;;12.07;;
70814;SDS011;58428;49.478;10.986;2024-03-08T00:41:37;23.15;;;11.88;;
70814;SDS011;58428;49.478;10.986;2024-03-08T00:44:02;24.85;;;12.25;;
70814;SDS011;58428;49.478;10.986;2024-03-08T00:46:29;26.27;;;10.93;;
70814;SDS011;58428;49.478;10.986;2024-03-08T00:48:56;27.23;;;12.65;;
70814;SDS011;58428;49.478;10.986;2024-03-08T00:51:22;32.15;;;13.18;;
70814;SDS011;58428;49.478;10.986;2024-03-08T00:53:47;26.45;;;11.43;;
70814;SDS011;58428;49.478;10.986;2024-03-08T00:56:14;29.85;;;12.77;;
70814;SDS011;58428;49.478;10.986;2024-03-08T00:58:42;26.98;;;12.85;;
70814;SDS011;58428;49.478;10.986;2024-03-08T01:01:10;25.77;;;11.07;;
70814;SDS011;58428;49.478;10.986;2024-03-08T01:03:42;28.08;;;12.75;;
70814;SDS011;58428;49.478;10.986;2024-03-08T01:06:11;28.42;;;12.43;;
70814;SDS011;58428;49.478;10.986;2024-03-08T01:08:36;26.75;;;12.50;;
70814;SDS011;58428;49.478;10.986;2024-03-08T01:11:04;29.00;;;13.00;;
70814;SDS011;58428;49.478;10.986;2024-03-08T01:13:30;26.35;;;10.93;;
70814;SDS011;58428;49.478;10.986;2024-03-08T01:15:55;30.23;;;12.38;;
70814;SDS011;58428;49.478;10.986;2024-03-08T01:18:23;28.02;;;11.35;;
70814;SDS011;58428;49.478;10.986;2024-03-08T01:20:49;29.13;;;11.82;;
70814;SDS011;58428;49.478;10.986;2024-03-08T01:23:18;29.92;;;12.38;;
70814;SDS011;58428;49.478;10.986;2024-03-08T01:25:44;26.15;;;12.07;;
70814;SDS011;58428;49.478;10.986;2024-03-08T01:28:10;26.73;;;12.23;;
70814;SDS011;58428;49.478;10.986;2024-03-08T01:30:35;28.38;;;11.77;;
70814;SDS011;58428;49.478;10.986;2024-03-08T01:33:03;30.67;;;12.77;;
70814;SDS011;58428;49.478;10.986;2024-03-08T01:35:29;26.15;;;11.50;;
70814;SDS011;58428;49.478;10.986;2024-03-08T01:37:57;26.90;;;11.95;;
70814;SDS011;58428;49.478;10.986;2024-03-08T01:40:25;25.60;;;11.13;;
70814;SDS011;58428;49.478;10.986;2024-03-08T01:42:50;26.10;;;11.98;;
70814;SDS011;58428;49.478;10.986;2024-03-08T01:45:16;26.98;;;11.63;;
70814;SDS011;58428;49.478;10.986;2024-03-08T01:47:41;29.33;;;12.20;;
70814;SDS011;58428;49.478;10.986;2024-03-08T01:50:08;24.33;;;11.43;;
70814;SDS011;58428;49.478;10.986;2024-03-08T01:52:36;24.35;;;11.65;;
70814;SDS011;58428;49.478;10.986;2024-03-08T01:55:03;25.20;;;11.32;;
70814;SDS011;58428;49.478;10.986;2024-03-08T01:57:34;26.65;;;12.18;;
70814;SDS011;58428;49.478;10.986;2024-03-08T02:00:03;24.90;;;11.75;;
70814;SDS011;58428;49.478;10.986;2024-03-08T02:02:30;26.70;;;11.98;;
70814;SDS011;58428;49.478;10.986;2024-03-08T02:05:02;25.48;;;11.38;;
70814;SDS011;58428;49.478;10.986;2024-03-08T02:07:30;24.15;;;10.88;;
70814;SDS011;58428;49.478;10.986;2024-03-08T02:09:56;26.15;;;11.50;;
70814;SDS011;58428;49.478;10.986;2024-03-08T02:12:23;28.02;;;12.52;;
70814;SDS011;58428;49.478;10.986;2024-03-08T02:14:48;29.17;;;12.93;;
70814;SDS011;58428;49.478;10.986;2024-03-08T02:17:15;26.33;;;12.38;;
70814;SDS011;58428;49.478;10.986;2024-03-08T02:19:40;28.08;;;13.55;;
70814;SDS011;58428;49.478;10.986;2024-03-08T02:22:07;25.73;;;12.95;;
70814;SDS011;58428;49.478;10.986;2024-03-08T02:24:32;26.67;;;11.30;;
70814;SDS011;58428;49.478;10.986;2024-03-08T02:26:58;27.52;;;12.18;;
70814;SDS011;58428;49.478;10.986;2024-03-08T02:29:28;26.27;;;11.50;;
70814;SDS011;58428;49.478;10.986;2024-03-08T02:31:55;28.85;;;11.60;;
70814;SDS011;58428;49.478;10.986;2024-03-08T02:34:23;25.55;;;11.82;;
70814;SDS011;58428;49.478;10.986;2024-03-08T02:36:50;26.15;;;11.77;;
70814;SDS011;58428;49.478;10.986;2024-03-08T02:39:18;26.88;;;11.60;;
70814;SDS011;58428;49.478;10.986;2024-03-08T02:41:44;26.05;;;10.75;;
70814;SDS011;58428;49.478;10.986;2024-03-08T02:44:10;25.48;;;11.07;;
70814;SDS011;58428;49.478;10.986;2024-03-08T02:46:37;25.98;;;11.80;;
70814;SDS011;58428;49.478;10.986;2024-03-08T02:49:08;25.77;;;12.18;;
70814;SDS011;58428;49.478;10.986;2024-03-08T02:51:33;27.35;;;12.75;;
70814;SDS011;58428;49.478;10.986;2024-03-08T02:54:01;28.75;;;11.85;;
70814;SDS011;58428;49.478;10.986;2024-03-08T02:56:30;28.48;;;12.13;;
70814;SDS011;58428;49.478;10.986;2024-03-08T02:59:00;26.70;;;11.68;;
70814;SDS011;58428;49.478;10.986;2024-03-08T03:01:27;29.77;;;12.48;;
70814;SDS011;58428;49.478;10.986;2024-03-08T03:03:53;27.17;;;11.90;;
70814;SDS011;58428;49.478;10.986;2024-03-08T03:06:20;32.00;;;13.50;;
70814;SDS011;58428;49.478;10.986;2024-03-08T03:08:49;31.15;;;13.43;;
70814;SDS011;58428;49.478;10.986;2024-03-08T03:11:16;28.48;;;12.38;;
70814;SDS011;58428;49.478;10.986;2024-03-08T03:13:42;28.30;;;11.93;;
70814;SDS011;58428;49.478;10.986;2024-03-08T03:16:17;27.75;;;12.43;;
70814;SDS011;58428;49.478;10.986;2024-03-08T03:19:18;30.73;;;12.45;;
70814;SDS011;58428;49.478;10.986;2024-03-08T03:21:45;25.80;;;11.43;;
70814;SDS011;58428;49.478;10.986;2024-03-08T03:24:14;26.42;;;11.75;;
70814;SDS011;58428;49.478;10.986;2024-03-08T03:26:46;26.23;;;12.57;;
70814;SDS011;58428;49.478;10.986;2024-03-08T03:29:19;27.48;;;12.00;;
70814;SDS011;58428;49.478;10.986;2024-03-08T03:31:46;29.25;;;12.07;;
70814;SDS011;58428;49.478;10.986;2024-03-08T03:36:38;26.50;;;11.25;;
70814;SDS011;58428;49.478;10.986;2024-03-08T03:39:08;26.75;;;11.88;;
70814;SDS011;58428;49.478;10.986;2024-03-08T03:41:41;30.25;;;12.45;;
70814;SDS011;58428;49.478;10.986;2024-03-08T03:44:11;27.80;;;11.35;;
70814;SDS011;58428;49.478;10.986;2024-03-08T03:46:36;27.77;;;11.95;;
70814;SDS011;58428;49.478;10.986;2024-03-08T03:49:05;28.75;;;12.80;;
70814;SDS011;58428;49.478;10.986;2024-03-08T03:51:32;25.58;;;11.23;;
70814;SDS011;58428;49.478;10.986;2024-03-08T03:53:57;31.75;;;13.40;;
70814;SDS011;58428;49.478;10.986;2024-03-08T03:56:26;27.88;;;12.93;;
70814;SDS011;58428;49.478;10.986;2024-03-08T03:58:51;26.77;;;12.02;;
70814;SDS011;58428;49.478;10.986;2024-03-08T04:01:19;26.60;;;12.23;;
70814;SDS011;58428;49.478;10.986;2024-03-08T04:03:48;24.98;;;11.90;;
70814;SDS011;58428;49.478;10.986;2024-03-08T04:06:14;24.67;;;12.38;;
70814;SDS011;58428;49.478;10.986;2024-03-08T04:08:39;28.30;;;11.95;;
70814;SDS011;58428;49.478;10.986;2024-03-08T04:11:06;27.42;;;12.27;;
70814;SDS011;58428;49.478;10.986;2024-03-08T04:13:33;27.50;;;12.35;;
70814;SDS011;58428;49.478;10.986;2024-03-08T04:16:02;30.52;;;13.38;;
70814;SDS011;58428;49.478;10.986;2024-03-08T04:18:33;29.65;;;11.90;;
70814;SDS011;58428;49.478;10.986;2024-03-08T04:21:02;30.00;;;12.82;;
70814;SDS011;58428;49.478;10.986;2024-03-08T04:23:33;30.45;;;12.15;;
70814;SDS011;58428;49.478;10.986;2024-03-08T04:26:11;31.23;;;14.18;;
70814;SDS011;58428;49.478;10.986;2024-03-08T04:28:36;27.75;;;12.48;;
70814;SDS011;58428;49.478;10.986;2024-03-08T04:31:03;29.52;;;13.90;;
70814;SDS011;58428;49.478;10.986;2024-03-08T04:33:31;32.38;;;14.48;;
70814;SDS011;58428;49.478;10.986;2024-03-08T04:36:00;31.42;;;13.80;;
70814;SDS011;58428;49.478;10.986;2024-03-08T04:38:31;28.25;;;13.23;;
70814;SDS011;58428;49.478;10.986;2024-03-08T04:43:23;28.58;;;13.02;;
70814;SDS011;58428;49.478;10.986;2024-03-08T04:45:52;31.48;;;14.23;;
70814;SDS011;58428;49.478;10.986;2024-03-08T04:48:20;28.38;;;11.63;;
70814;SDS011;58428;49.478;10.986;2024-03-08T04:50:46;29.95;;;14.02;;
70814;SDS011;58428;49.478;10.986;2024-03-08T04:53:13;28.80;;;12.90;;
70814;SDS011;58428;49.478;10.986;2024-03-08T04:55:38;31.65;;;13.93;;
70814;SDS011;58428;49.478;10.986;2024-03-08T04:58:06;30.88;;;13.18;;
70814;SDS011;58428;49.478;10.986;2024-03-08T05:00:31;35.47;;;14.80;;
70814;SDS011;58428;49.478;10.986;2024-03-08T05:03:00;26.15;;;11.73;;
70814;SDS011;58428;49.478;10.986;2024-03-08T05:05:29;32.72;;;14.48;;
70814;SDS011;58428;49.478;10.986;2024-03-08T05:08:04;30.60;;;13.65;;
70814;SDS011;58428;49.478;10.986;2024-03-08T05:10:39;29.20;;;14.05;;
70814;SDS011;58428;49.478;10.986;2024-03-08T05:13:09;31.17;;;12.63;;
70814;SDS011;58428;49.478;10.986;2024-03-08T05:15:48;32.70;;;14.57;;
70814;SDS011;58428;49.478;10.986;2024-03-08T05:18:15;32.00;;;14.02;;
70814;SDS011;58428;49.478;10.986;2024-03-08T05:21:01;29.55;;;13.27;;
70814;SDS011;58428;49.478;10.986;2024-03-08T05:23:29;27.65;;;13.80;;
70814;SDS011;58428;49.478;10.986;2024-03-08T05:25:57;33.67;;;14.23;;
70814;SDS011;58428;49.478;10.986;2024-03-08T05:30:48;31.98;;;13.40;;
70814;SDS011;58428;49.478;10.986;2024-03-08T05:33:18;29.30;;;13.05;;
70814;SDS011;58428;49.478;10.986;2024-03-08T05:35:44;29.00;;;12.90;;
70814;SDS011;58428;49.478;10.986;2024-03-08T05:38:13;33.35;;;14.68;;
70814;SDS011;58428;49.478;10.986;2024-03-08T05:40:41;28.33;;;12.77;;
70814;SDS011;58428;49.478;10.986;2024-03-08T05:43:08;30.77;;;14.55;;
70814;SDS011;58428;49.478;10.986;2024-03-08T05:45:35;32.58;;;14.38;;
70814;SDS011;58428;49.478;10.986;2024-03-08T05:48:00;33.05;;;14.30;;
70814;SDS011;58428;49.478;10.986;2024-03-08T05:50:27;38.45;;;14.80;;
70814;SDS011;58428;49.478;10.986;2024-03-08T05:52:57;31.98;;;12.98;;
70814;SDS011;58428;49.478;10.986;2024-03-08T05:55:22;29.08;;;14.10;;
70814;SDS011;58428;49.478;10.986;2024-03-08T05:57:49;33.50;;;14.95;;
70814;SDS011;58428;49.478;10.986;2024-03-08T06:00:15;32.95;;;15.45;;
70814;SDS011;58428;49.478;10.986;2024-03-08T06:02:44;34.78;;;15.20;;
70814;SDS011;58428;49.478;10.986;2024-03-08T06:05:10;34.70;;;15.27;;
70814;SDS011;58428;49.478;10.986;2024-03-08T06:07:36;33.53;;;14.20;;
70814;SDS011;58428;49.478;10.986;2024-03-08T06:10:05;36.17;;;16.20;;
70814;SDS011;58428;49.478;10.986;2024-03-08T06:12:36;30.70;;;13.75;;
70814;SDS011;58428;49.478;10.986;2024-03-08T06:15:08;34.40;;;14.40;;
70814;SDS011;58428;49.478;10.986;2024-03-08T06:20:00;33.00;;;14.40;;
70814;SDS011;58428;49.478;10.986;2024-03-08T06:22:27;34.45;;;15.30;;
70814;SDS011;58428;49.478;10.986;2024-03-08T06:24:55;32.92;;;14.20;;
70814;SDS011;58428;49.478;10.986;2024-03-08T06:27:21;35.88;;;14.02;;
70814;SDS011;58428;49.478;10.986;2024-03-08T06:29:50;35.85;;;15.48;;
70814;SDS011;58428;49.478;10.986;2024-03-08T06:32:16;37.42;;;16.80;;
70814;SDS011;58428;49.478;10.986;2024-03-08T06:34:46;37.08;;;15.55;;
70814;SDS011;58428;49.478;10.986;2024-03-08T06:37:15;35.25;;;16.42;;
70814;SDS011;58428;49.478;10.986;2024-03-08T06:39:48;38.60;;;15.10;;
70814;SDS011;58428;49.478;10.986;2024-03-08T06:42:13;38.67;;;14.93;;
70814;SDS011;58428;49.478;10.986;2024-03-08T06:47:17;34.72;;;15.30;;
70814;SDS011;58428;49.478;10.986;2024-03-08T06:49:51;36.58;;;15.27;;
70814;SDS011;58428;49.478;10.986;2024-03-08T06:52:18;32.78;;;14.20;;
70814;SDS011;58428;49.478;10.986;2024-03-08T06:54:48;36.35;;;15.75;;
70814;SDS011;58428;49.478;10.986;2024-03-08T06:57:15;34.40;;;15.63;;
70814;SDS011;58428;49.478;10.986;2024-03-08T06:59:41;33.45;;;14.98;;
70814;SDS011;58428;49.478;10.986;2024-03-08T07:02:09;39.17;;;16.73;;
70814;SDS011;58428;49.478;10.986;2024-03-08T07:04:37;33.67;;;15.80;;
70814;SDS011;58428;49.478;10.986;2024-03-08T07:07:07;38.72;;;16.40;;
70814;SDS011;58428;49.478;10.986;2024-03-08T07:09:35;38.33;;;15.70;;
70814;SDS011;58428;49.478;10.986;2024-03-08T07:12:12;36.10;;;16.55;;
70814;SDS011;58428;49.478;10.986;2024-03-08T07:14:39;35.15;;;15.82;;
70814;SDS011;58428;49.478;10.986;2024-03-08T07:17:13;41.25;;;17.42;;
70814;SDS011;58428;49.478;10.986;2024-03-08T07:19:40;33.42;;;15.43;;
70814;SDS011;58428;49.478;10.986;2024-03-08T07:22:06;35.47;;;16.90;;
70814;SDS011;58428;49.478;10.986;2024-03-08T07:24:37;34.67;;;14.52;;
70814;SDS011;58428;49.478;10.986;2024-03-08T07:27:35;34.72;;;14.95;;
70814;SDS011;58428;49.478;10.986;2024-03-08T07:30:01;32.90;;;14.73;;
70814;SDS011;58428;49.478;10.986;2024-03-08T07:32:30;33.67;;;15.45;;
70814;SDS011;58428;49.478;10.986;2024-03-08T07:34:56;36.35;;;14.65;;
70814;SDS011;58428;49.478;10.986;2024-03-08T07:37:23;34.17;;;14.48;;
70814;SDS011;58428;49.478;10.986;2024-03-08T07:39:50;34.47;;;15.52;;
70814;SDS011;58428;49.478;10.986;2024-03-08T07:42:17;35.85;;;15.63;;
70814;SDS011;58428;49.478;10.986;2024-03-08T07:44:44;33.20;;;14.85;;
70814;SDS011;58428;49.478;10.986;2024-03-08T07:47:13;32.28;;;15.20;;
70814;SDS011;58428;49.478;10.986;2024-03-08T07:49:39;33.70;;;14.38;;
70814;SDS011;58428;49.478;10.986;2024-03-08T07:52:10;31.15;;;15.02;;
70814;SDS011;58428;49.478;10.986;2024-03-08T07:54:40;31.08;;;15.38;;
70814;SDS011;58428;49.478;10.986;2024-03-08T07:57:06;35.58;;;14.98;;
70814;SDS011;58428;49.478;10.986;2024-03-08T07:59:32;33.60;;;14.35;;
70814;SDS011;58428;49.478;10.986;2024-03-08T08:01:58;31.58;;;14.73;;
70814;SDS011;58428;49.478;10.986;2024-03-08T08:04:24;31.27;;;14.48;;
70814;SDS011;58428;49.478;10.986;2024-03-08T08:06:52;33.13;;;14.65;;
70814;SDS011;58428;49.478;10.986;2024-03-08T08:09:19;33.85;;;13.02;;
70814;SDS011;58428;49.478;10.986;2024-03-08T08:11:56;30.00;;;14.48;;
70814;SDS011;58428;49.478;10.986;2024-03-08T08:14:23;33.10;;;15.80;;
70814;SDS011;58428;49.478;10.986;2024-03-08T08:16:49;30.95;;;14.00;;
70814;SDS011;58428;49.478;10.986;2024-03-08T08:19:17;33.13;;;14.63;;
70814;SDS011;58428;49.478;10.986;2024-03-08T08:21:45;33.17;;;13.98;;
70814;SDS011;58428;49.478;10.986;2024-03-08T08:24:16;31.92;;;14.60;;
70814;SDS011;58428;49.478;10.986;2024-03-08T08:26:41;33.00;;;14.32;;
70814;SDS011;58428;49.478;10.986;2024-03-08T08:29:09;32.92;;;14.80;;
70814;SDS011;58428;49.478;10.986;2024-03-08T08:31:35;31.70;;;14.50;;
70814;SDS011;58428;49.478;10.986;2024-03-08T08:34:01;33.25;;;15.90;;
70814;SDS011;58428;49.478;10.986;2024-03-08T08:36:31;32.38;;;13.95;;
70814;SDS011;58428;49.478;10.986;2024-03-08T08:39:03;30.95;;;13.55;;
70814;SDS011;58428;49.478;10.986;2024-03-08T08:41:32;30.10;;;13.30;;
70814;SDS011;58428;49.478;10.986;2024-03-08T08:43:57;30.60;;;14.50;;
70814;SDS011;58428;49.478;10.986;2024-03-08T08:46:23;30.90;;;14.75;;
70814;SDS011;58428;49.478;10.986;2024-03-08T08:48:49;34.00;;;15.68;;
70814;SDS011;58428;49.478;10.986;2024-03-08T08:51:17;29.50;;;13.95;;
70814;SDS011;58428;49.478;10.986;2024-03-08T08:53:44;27.63;;;14.30;;
70814;SDS011;58428;49.478;10.986;2024-03-08T08:56:11;26.95;;;13.23;;
70814;SDS011;58428;49.478;10.986;2024-03-08T08:58:45;27.38;;;12.80;;
70814;SDS011;58428;49.478;10.986;2024-03-08T09:01:12;29.30;;;13.85;;
70814;SDS011;58428;49.478;10.986;2024-03-08T09:03:38;29.27;;;13.23;;
70814;SDS011;58428;49.478;10.986;2024-03-08T09:06:07;28.95;;;13.70;;
70814;SDS011;58428;49.478;10.986;2024-03-08T09:08:39;26.20;;;12.90;;
70814;SDS011;58428;49.478;10.986;2024-03-08T09:11:05;27.48;;;13.15;;
70814;SDS011;58428;49.478;10.986;2024-03-08T09:13:30;30.10;;;12.85;;
70814;SDS011;58428;49.478;10.986;2024-03-08T09:15:56;24.00;;;11.63;;
70814;SDS011;58428;49.478;10.986;2024-03-08T09:18:22;24.05;;;11.90;;
70814;SDS011;58428;49.478;10.986;2024-03-08T09:20:49;21.95;;;10.68;;
70814;SDS011;58428;49.478;10.986;2024-03-08T09:23:16;22.58;;;9.82;;
70814;SDS011;58428;49.478;10.986;2024-03-08T09:25:44;23.73;;;11.43;;
70814;SDS011;58428;49.478;10.986;2024-03-08T09:28:10;22.55;;;11.68;;
70814;SDS011;58428;49.478;10.986;2024-03-08T09:30:37;22.50;;;10.55;;
70814;SDS011;58428;49.478;10.986;2024-03-08T09:33:05;23.17;;;11.10;;
70814;SDS011;58428;49.478;10.986;2024-03-08T09:35:36;21.95;;;10.20;;
70814;SDS011;58428;49.478;10.986;2024-03-08T09:38:03;20.90;;;11.02;;
70814;SDS011;58428;49.478;10.986;2024-03-08T09:40:38;20.83;;;10.85;;
70814;SDS011;58428;49.478;10.986;2024-03-08T09:43:09;20.60;;;10.40;;
70814;SDS011;58428;49.478;10.986;2024-03-08T09:45:40;21.05;;;10.13;;
70814;SDS011;58428;49.478;10.986;2024-03-08T09:48:11;21.90;;;10.40;;
70814;SDS011;58428;49.478;10.986;2024-03-08T09:50:41;19.92;;;9.80;;
70814;SDS011;58428;49.478;10.986;2024-03-08T09:53:12;21.00;;;10.05;;
70814;SDS011;58428;49.478;10.986;2024-03-08T09:55:37;21.55;;;10.50;;
70814;SDS011;58428;49.478;10.986;2024-03-08T09:58:07;21.10;;;10.00;;
70814;SDS011;58428;49.478;10.986;2024-03-08T10:00:47;21.17;;;10.18;;
70814;SDS011;58428;49.478;10.986;2024-03-08T10:03:13;19.10;;;9.63;;
70814;SDS011;58428;49.478;10.986;2024-03-08T10:05:40;18.13;;;10.40;;
70814;SDS011;58428;49.478;10.986;2024-03-08T10:08:06;20.33;;;10.32;;
70814;SDS011;58428;49.478;10.986;2024-03-08T10:10:37;20.98;;;10.60;;
70814;SDS011;58428;49.478;10.986;2024-03-08T10:13:06;17.02;;;9.48;;
70814;SDS011;58428;49.478;10.986;2024-03-08T10:15:32;20.70;;;10.70;;
70814;SDS011;58428;49.478;10.986;2024-03-08T10:18:01;20.65;;;10.15;;
70814;SDS011;58428;49.478;10.986;2024-03-08T10:20:33;19.00;;;10.00;;
70814;SDS011;58428;49.478;10.986;2024-03-08T10:23:01;18.77;;;9.45;;
70814;SDS011;58428;49.478;10.986;2024-03-08T10:25:29;18.10;;;9.27;;
70814;SDS011;58428;49.478;10.986;2024-03-08T10:27:56;20.75;;;9.73;;
70814;SDS011;58428;49.478;10.986;2024-03-08T10:30:22;20.45;;;9.52;;
70814;SDS011;58428;49.478;10.986;2024-03-08T10:32:48;17.95;;;8.70;;
70814;SDS011;58428;49.478;10.986;2024-03-08T10:35:14;17.65;;;9.23;;
70814;SDS011;58428;49.478;10.986;2024-03-08T10:37:45;20.15;;;8.98;;
70814;SDS011;58428;49.478;10.986;2024-03-08T10:40:17;18.27;;;9.40;;
70814;SDS011;58428;49.478;10.986;2024-03-08T10:42:47;18.27;;;9.20;;
70814;SDS011;58428;49.478;10.986;2024-03-08T10:45:26;16.20;;;8.73;;
70814;SDS011;58428;49.478;10.986;2024-03-08T10:48:27;18.85;;;8.38;;
70814;SDS011;58428;49.478;10.986;2024-03-08T10:50:59;16.10;;;8.73;;
70814;SDS011;58428;49.478;10.986;2024-03-08T10:53:28;16.15;;;8.27;;
70814;SDS011;58428;49.478;10.986;2024-03-08T10:55:57;17.33;;;8.23;;
70814;SDS011;58428;49.478;10.986;2024-03-08T10:58:27;14.60;;;7.85;;
70814;SDS011;58428;49.478;10.986;2024-03-08T11:00:56;15.57;;;8.00;;
70814;SDS011;58428;49.478;10.986;2024-03-08T11:09:49;15.48;;;8.10;;
70814;SDS011;58428;49.478;10.986;2024-03-08T11:12:18;15.15;;;7.72;;
70814;SDS011;58428;49.478;10.986;2024-03-08T11:14:54;14.43;;;7.47;;
70814;SDS011;58428;49.478;10.986;2024-03-08T11:17:21;14.85;;;8.32;;
70814;SDS011;58428;49.478;10.986;2024-03-08T11:19:56;14.70;;;8.15;;
70814;SDS011;58428;49.478;10.986;2024-03-08T11:22:31;14.45;;;7.07;;
70814;SDS011;58428;49.478;10.986;2024-03-08T11:25:08;13.00;;;6.78;;
70814;SDS011;58428;49.478;10.986;2024-03-08T11:27:36;13.00;;;7.03;;
70814;SDS011;58428;49.478;10.986;2024-03-08T11:30:18;13.50;;;7.40;;
70814;SDS011;58428;49.478;10.986;2024-03-08T11:32:50;13.65;;;6.25;;
70814;SDS011;58428;49.478;10.986;2024-03-08T11:35:22;12.88;;;7.13;;
70814;SDS011;58428;49.478;10.986;2024-03-08T11:37:48;13.30;;;7.13;;
70814;SDS011;58428;49.478;10.986;2024-03-08T11:40:14;11.43;;;6.35;;
70814;SDS011;58428;49.478;10.986;2024-03-08T11:42:47;12.55;;;6.40;;
70814;SDS011;58428;49.478;10.986;2024-03-08T11:45:15;12.00;;;6.80;;
70814;SDS011;58428;49.478;10.986;2024-03-08T11:47:45;12.15;;;6.15;;
70814;SDS011;58428;49.478;10.986;2024-03-08T11:50:16;12.23;;;5.90;;
70814;SDS011;58428;49.478;10.986;2024-03-08T11:52:49;12.43;;;6.88;;
70814;SDS011;58428;49.478;10.986;2024-03-08T11:55:14;12.88;;;7.13;;
70814;SDS011;58428;49.478;10.986;2024-03-08T11:57:41;13.07;;;6.60;;
70814;SDS011;58428;49.478;10.986;2024-03-08T12:00:14;14.13;;;6.63;;
70814;SDS011;58428;49.478;10.986;2024-03-08T12:03:03;14.20;;;6.57;;
70814;SDS011;58428;49.478;10.986;2024-03-08T12:05:34;14.48;;;6.00;;
70814;SDS011;58428;49.478;10.986;2024-03-08T12:08:00;12.07;;;6.60;;
70814;SDS011;58428;49.478;10.986;2024-03-08T12:10:27;13.13;;;6.78;;
70814;SDS011;58428;49.478;10.986;2024-03-08T12:12:55;12.93;;;6.25;;
70814;SDS011;58428;49.478;10.986;2024-03-08T12:15:24;11.20;;;5.88;;
70814;SDS011;58428;49.478;10.986;2024-03-08T12:17:51;13.48;;;6.55;;
70814;SDS011;58428;49.478;10.986;2024-03-08T12:20:21;11.25;;;6.00;;
70814;SDS011;58428;49.478;10.986;2024-03-08T12:22:52;10.57;;;5.68;;
70814;SDS011;58428;49.478;10.986;2024-03-08T12:25:21;11.63;;;6.18;;
70814;SDS011;58428;49.478;10.986;2024-03-08T12:27:46;12.35;;;5.90;;
70814;SDS011;58428;49.478;10.986;2024-03-08T12:33:00;12.50;;;5.75;;
70814;SDS011;58428;49.478;10.986;2024-03-08T12:35:29;10.90;;;5.88;;
70814;SDS011;58428;49.478;10.986;2024-03-08T12:37:58;11.25;;;5.75;;
70814;SDS011;58428;49.478;10.986;2024-03-08T12:40:31;10.80;;;5.95;;
70814;SDS011;58428;49.478;10.986;2024-03-08T12:42:57;13.13;;;6.07;;
70814;SDS011;58428;49.478;10.986;2024-03-08T12:45:24;11.68;;;6.18;;
70814;SDS011;58428;49.478;10.986;2024-03-08T12:47:55;10.60;;;5.68;;
70814;SDS011;58428;49.478;10.986;2024-03-08T12:50:21;12.30;;;6.68;;
70814;SDS011;58428;49.478;10.986;2024-03-08T12:52:53;11.77;;;5.90;;
70814;SDS011;58428;49.478;10.986;2024-03-08T12:55:19;13.10;;;6.93;;
70814;SDS011;58428;49.478;10.986;2024-03-08T12:57:45;12.35;;;5.97;;
70814;SDS011;58428;49.478;10.986;2024-03-08T13:00:12;10.52;;;5.53;;
70814;SDS011;58428;49.478;10.986;2024-03-08T13:02:45;11.25;;;5.45;;
70814;SDS011;58428;49.478;10.986;2024-03-08T13:05:12;10.15;;;5.18;;
70814;SDS011;58428;49.478;10.986;2024-03-08T13:07:39;11.98;;;6.38;;
70814;SDS011;58428;49.478;10.986;2024-03-08T13:10:15;11.10;;;5.03;;
70814;SDS011;58428;49.478;10.986;2024-03-08T13:12:42;12.23;;;5.97;;
70814;SDS011;58428;49.478;10.986;2024-03-08T13:15:08;11.32;;;5.40;;
70814;SDS011;58428;49.478;10.986;2024-03-08T13:17:37;11.80;;;5.97;;
70814;SDS011;58428;49.478;10.986;2024-03-08T13:20:05;11.70;;;6.38;;
70814;SDS011;58428;49.478;10.986;2024-03-08T13:22:32;11.70;;;5.72;;
70814;SDS011;58428;49.478;10.986;2024-03-08T13:24:58;10.60;;;6.05;;
70814;SDS011;58428;49.478;10.986;2024-03-08T13:27:26;12.90;;;5.78;;
70814;SDS011;58428;49.478;10.986;2024-03-08T13:30:01;10.63;;;5.20;;
70814;SDS011;58428;49.478;10.986;2024-03-08T13:32:27;10.70;;;5.90;;
70814;SDS011;58428;49.478;10.986;2024-03-08T13:34:53;10.68;;;5.78;;
70814;SDS011;58428;49.478;10.986;2024-03-08T13:37:22;12.38;;;5.82;;
70814;SDS011;58428;49.478;10.986;2024-03-08T13:39:48;15.98;;;6.60;;
70814;SDS011;58428;49.478;10.986;2024-03-08T13:42:13;9.88;;;5.70;;
70814;SDS011;58428;49.478;10.986;2024-03-08T13:44:45;10.82;;;5.10;;
70814;SDS011;58428;49.478;10.986;2024-03-08T13:47:12;9.32;;;5.07;;
70814;SDS011;58428;49.478;10.986;2024-03-08T13:49:38;12.65;;;6.10;;
70814;SDS011;58428;49.478;10.986;2024-03-08T13:52:04;14.00;;;7.13;;
70814;SDS011;58428;49.478;10.986;2024-03-08T13:54:30;13.88;;;7.18;;
70814;SDS011;58428;49.478;10.986;2024-03-08T13:56:57;13.38;;;6.88;;
70814;SDS011;58428;49.478;10.986;2024-03-08T13:59:24;15.05;;;7.45;;
70814;SDS011;58428;49.478;10.986;2024-03-08T14:01:54;14.90;;;7.53;;
70814;SDS011;58428;49.478;10.986;2024-03-08T14:04:20;13.45;;;7.60;;
70814;SDS011;58428;49.478;10.986;2024-03-08T14:06:46;14.15;;;7.22;;
70814;SDS011;58428;49.478;10.986;2024-03-08T14:09:11;15.10;;;8.65;;
70814;SDS011;58428;49.478;10.986;2024-03-08T14:11:44;13.52;;;7.10;;
70814;SDS011;58428;49.478;10.986;2024-03-08T14:14:11;17.23;;;7.80;;
70814;SDS011;58428;49.478;10.986;2024-03-08T14:16:38;13.77;;;7.13;;
70814;SDS011;58428;49.478;10.986;2024-03-08T14:19:09;14.32;;;7.38;;
70814;SDS011;58428;49.478;10.986;2024-03-08T14:21:36;14.35;;;7.70;;
70814;SDS011;58428;49.478;10.986;2024-03-08T14:24:04;13.35;;;7.47;;
70814;SDS011;58428;49.478;10.986;2024-03-08T14:26:29;14.95;;;8.13;;
70814;SDS011;58428;49.478;10.986;2024-03-08T14:28:56;14.75;;;7.45;;
70814;SDS011;58428;49.478;10.986;2024-03-08T14:31:22;13.80;;;7.85;;
70814;SDS011;58428;49.478;10.986;2024-03-08T14:33:56;15.70;;;6.97;;
70814;SDS011;58428;49.478;10.986;2024-03-08T14:36:25;15.32;;;7.13;;
70814;SDS011;58428;49.478;10.986;2024-03-08T14:38:56;12.95;;;7.05;;
70814;SDS011;58428;49.478;10.986;2024-03-08T14:41:25;14.05;;;6.65;;
70814;SDS011;58428;49.478;10.986;2024-03-08T14:44:02;12.75;;;7.43;;
70814;SDS011;58428;49.478;10.986;2024-03-08T14:46:28;12.18;;;6.93;;